This is the latest recevied weather packets stored in our database for station/object W8BS. If no packets are shown the sender has not sent any weather packets the latest 10 day(s).
| Time | Temp. | Humidity | Pressure | Rain* | Wind** | Luminosity | Snow |
|---|---|---|---|---|---|---|---|
| 1778000728 | 22.78° C | 48% | 1011.7 hPa | 0 mm | - | 728 W/m² | - |
| 1778000424 | 22.22° C | 48% | 1011.6 hPa | 0 mm | - | 255 W/m² | - |
| 1778000120 | 22.22° C | 48% | 1011.9 hPa | 0 mm | - | 736 W/m² | - |
| 1777999815 | 22.78° C | 47% | 1011.9 hPa | 0 mm | - | 275 W/m² | - |
| 1777999511 | 22.78° C | 47% | 1011.9 hPa | 0 mm | - | 688 W/m² | - |
| 1777999210 | 21.67° C | 48% | 1011.8 hPa | 0 mm | - | 706 W/m² | - |
| 1777998908 | 21.67° C | 48% | 1011.6 hPa | 0 mm | - | 660 W/m² | - |
| 1777998604 | 21.67° C | 48% | 1011.9 hPa | 0 mm | - | 681 W/m² | - |
| 1777998297 | 21.11° C | 49% | 1012.3 hPa | 0 mm | - | 698 W/m² | - |
| 1777997994 | 21.67° C | 49% | 1012.1 hPa | 0 mm | - | 659 W/m² | - |
| 1777997691 | 22.22° C | 46% | 1012.2 hPa | 0 mm | - | 658 W/m² | - |
| 1777997388 | 21.67° C | 48% | 1012.3 hPa | 0 mm | - | 691 W/m² | - |
| 1777997086 | 21.11° C | 49% | 1012.5 hPa | 0 mm | - | 709 W/m² | - |
| 1777996783 | 21.67° C | 49% | 1012.5 hPa | 0 mm | - | 694 W/m² | - |
| 1777996479 | 21.67° C | 49% | 1012.4 hPa | 0 mm | - | 299 W/m² | - |
| 1777996176 | 21.67° C | 50% | 1012.4 hPa | 0 mm | - | 701 W/m² | - |
| 1777995872 | 21.67° C | 49% | 1012.5 hPa | 0 mm | - | 691 W/m² | - |
| 1777995568 | 21.67° C | 50% | 1012.4 hPa | 0 mm | - | 713 W/m² | - |
| 1777995266 | 22.78° C | 48% | 1012.3 hPa | 0 mm | - | 362 W/m² | - |
| 1777994962 | 21.67° C | 52% | 1012.5 hPa | 0 mm | - | 814 W/m² | - |
| 1777994654 | 20.56° C | 51% | 1012.8 hPa | 0 mm | - | 797 W/m² | - |
| 1777994354 | 20.56° C | 52% | 1012.5 hPa | 0 mm | - | 773 W/m² | - |
| 1777994050 | 20.56° C | 52% | 1012.3 hPa | 0 mm | - | 738 W/m² | - |
| 1777993748 | 20.56° C | 52% | 1012.5 hPa | 0 mm | - | 764 W/m² | - |
| 1777993445 | 20° C | 53% | 1012.5 hPa | 0 mm | - | 740 W/m² | - |
* Rain latest hour (hover to see other rain measurements)
** Current wind speed in m/s (hover to see current wind gust speed)